Time;durP1;ratioP1;P1;durP2;ratioP2;P2;SDS_P1;SDS_P2;PMS_P1;PMS_P2;Temp;Humidity;BMP_temperature;BMP_pressure;BME280_temperature;BME280_humidity;BME280_pressure;Samples;Min_cycle;Max_cycle;Signal;HPM_P1;HPM_P2
2022/07/01 00:00:18;;;;;;;26.90;16.00;;;;;;;12.37;100.00;101484.59;5073437;28;20032;-73
2022/07/01 00:02:44;;;;;;;29.38;15.23;;;;;;;12.33;100.00;101482.06;5067261;28;20056;-73
2022/07/01 00:05:09;;;;;;;29.95;16.65;;;;;;;12.33;100.00;101493.41;5070307;28;20050;-73
2022/07/01 00:07:35;;;;;;;28.90;15.93;;;;;;;12.34;100.00;101483.78;5059671;28;20036;-73
2022/07/01 00:10:00;;;;;;;26.85;15.65;;;;;;;12.29;100.00;101489.09;5072296;28;20017;-73
2022/07/01 00:12:25;;;;;;;27.65;16.65;;;;;;;12.26;100.00;101478.72;5072105;28;20029;-73
2022/07/01 00:14:51;;;;;;;26.17;15.60;;;;;;;12.18;100.00;101473.63;5063922;28;20033;-73
2022/07/01 00:17:16;;;;;;;22.77;14.93;;;;;;;12.13;100.00;101475.50;5062943;28;20029;-73
2022/07/01 00:19:41;;;;;;;23.13;15.27;;;;;;;12.13;100.00;101472.00;5070402;28;20032;-73
2022/07/01 00:22:07;;;;;;;27.33;15.82;;;;;;;12.14;100.00;101471.97;5072485;28;20028;-73
2022/07/01 00:24:32;;;;;;;29.48;16.08;;;;;;;12.28;100.00;101468.22;5067269;28;20032;-73
2022/07/01 00:26:58;;;;;;;29.70;17.25;;;;;;;12.33;100.00;101464.63;5071148;28;20036;-73
2022/07/01 00:29:23;;;;;;;31.65;17.85;;;;;;;12.37;100.00;101462.81;5070996;28;20024;-73
2022/07/01 00:31:48;;;;;;;33.08;16.48;;;;;;;12.42;100.00;101468.78;5071252;28;20091;-73
2022/07/01 00:34:13;;;;;;;30.60;17.40;;;;;;;12.48;100.00;101466.03;5070690;28;20020;-73
2022/07/01 00:36:39;;;;;;;33.65;17.23;;;;;;;12.49;100.00;101443.38;5066784;28;20036;-73
2022/07/01 00:39:04;;;;;;;35.58;17.77;;;;;;;12.55;100.00;101438.00;5070706;28;20024;-73
2022/07/01 00:41:29;;;;;;;30.23;17.40;;;;;;;12.57;100.00;101446.69;5072507;28;20086;-73
2022/07/01 00:43:57;;;;;;;34.88;18.05;;;;;;;12.58;100.00;101436.19;5071929;28;20427;-73
2022/07/01 00:46:25;;;;;;;33.03;17.35;;;;;;;12.59;100.00;101439.69;5070568;28;20032;-73
2022/07/01 00:48:54;;;;;;;33.33;18.25;;;;;;;12.68;100.00;101439.44;5059926;28;20104;-73
2022/07/01 00:51:19;;;;;;;31.15;17.33;;;;;;;12.69;100.00;101446.41;5058923;28;20060;-73
2022/07/01 00:53:45;;;;;;;27.67;16.25;;;;;;;12.69;100.00;101442.91;5062729;28;20067;-73
2022/07/01 00:56:10;;;;;;;27.40;16.48;;;;;;;12.65;100.00;101450.88;5070768;28;20098;-74
2022/07/01 00:58:37;;;;;;;30.67;16.52;;;;;;;12.66;100.00;101454.34;5071103;28;20077;-73
2022/07/01 01:01:02;;;;;;;29.65;16.50;;;;;;;12.63;100.00;101451.78;5071050;28;20031;-73
2022/07/01 01:03:28;;;;;;;30.17;17.08;;;;;;;12.67;100.00;101450.81;5072128;28;20404;-73
2022/07/01 01:05:57;;;;;;;30.40;17.42;;;;;;;12.73;100.00;101468.13;5057834;28;20028;-73
2022/07/01 01:08:22;;;;;;;28.48;17.15;;;;;;;12.74;100.00;101470.72;5062883;28;20032;-73
2022/07/01 01:10:47;;;;;;;31.45;17.88;;;;;;;12.76;100.00;101468.94;5066987;28;20102;-73
2022/07/01 01:13:13;;;;;;;31.63;16.90;;;;;;;12.74;100.00;101478.56;5071320;28;20082;-73
2022/07/01 01:15:38;;;;;;;33.72;18.67;;;;;;;12.79;100.00;101481.94;5069080;28;20040;-73
2022/07/01 01:18:03;;;;;;;31.05;17.63;;;;;;;12.81;100.00;101495.84;5071475;28;20024;-73
2022/07/01 01:20:36;;;;;;;31.48;18.30;;;;;;;12.83;100.00;101495.81;5064168;28;20024;-73
2022/07/01 01:23:02;;;;;;;39.47;18.75;;;;;;;12.80;100.00;101504.59;5066644;28;20032;-73
2022/07/01 01:25:27;;;;;;;32.90;18.33;;;;;;;12.80;100.00;101509.81;5070385;28;20027;-73
2022/07/01 01:27:52;;;;;;;29.88;18.80;;;;;;;12.79;100.00;101504.63;5070614;28;20032;-73
2022/07/01 01:30:18;;;;;;;34.17;19.70;;;;;;;12.82;100.00;101497.56;5071847;28;20024;-73
2022/07/01 01:32:43;;;;;;;31.95;19.10;;;;;;;12.78;100.00;101502.91;5067140;28;20028;-73
2022/07/01 01:35:10;;;;;;;33.70;19.95;;;;;;;12.81;100.00;101510.69;5059007;28;20406;-73
2022/07/01 01:37:35;;;;;;;37.13;20.13;;;;;;;12.83;100.00;101501.06;5055371;28;20081;-73
2022/07/01 01:40:01;;;;;;;34.92;19.70;;;;;;;12.83;100.00;101501.91;5069363;28;20029;-73
2022/07/01 01:42:27;;;;;;;36.28;19.85;;;;;;;12.84;100.00;101501.00;5070874;28;20028;-73
2022/07/01 01:44:52;;;;;;;35.00;19.60;;;;;;;12.93;100.00;101493.84;5057661;28;20614;-73
2022/07/01 01:47:17;;;;;;;34.15;20.13;;;;;;;12.91;100.00;101488.63;5070427;28;20028;-73
2022/07/01 01:49:43;;;;;;;41.80;21.58;;;;;;;12.89;100.00;101496.53;5062993;28;20075;-73
2022/07/01 01:52:08;;;;;;;38.80;20.33;;;;;;;12.88;100.00;101497.44;5068251;28;20035;-73
2022/07/01 01:54:36;;;;;;;40.28;20.80;;;;;;;12.86;100.00;101491.38;5058483;28;20021;-73
2022/07/01 01:57:02;;;;;;;35.63;20.35;;;;;;;12.88;100.00;101494.81;5065188;28;20037;-73
2022/07/01 01:59:28;;;;;;;42.22;21.13;;;;;;;12.86;100.00;101501.84;5059410;28;20102;-73
2022/07/01 02:01:53;;;;;;;40.63;20.65;;;;;;;12.88;100.00;101496.56;5069024;28;20464;-73
2022/07/01 02:04:18;;;;;;;38.70;21.63;;;;;;;12.94;100.00;101495.56;5065997;28;20024;-73
2022/07/01 02:06:43;;;;;;;43.30;22.33;;;;;;;12.92;100.00;101508.69;5061638;28;20029;-73
2022/07/01 02:09:09;;;;;;;35.90;21.05;;;;;;;12.87;100.00;101505.31;5069430;28;20028;-73
2022/07/01 02:11:35;;;;;;;40.83;20.85;;;;;;;12.91;100.00;101508.72;5058072;28;20116;-73
2022/07/01 02:14:00;;;;;;;37.83;21.27;;;;;;;12.92;100.00;101520.94;5071246;28;20017;-73
2022/07/01 02:16:25;;;;;;;36.58;21.27;;;;;;;12.84;100.00;101519.31;5070326;28;20052;-73
2022/07/01 02:18:50;;;;;;;35.17;20.75;;;;;;;12.88;100.00;101525.34;5068148;28;20033;-73
2022/07/01 02:21:16;;;;;;;39.58;21.90;;;;;;;12.89;100.00;101521.84;5067666;28;20035;-73
2022/07/01 02:23:41;;;;;;;39.65;21.67;;;;;;;12.83;100.00;101530.69;5069809;28;20075;-73
2022/07/01 02:26:06;;;;;;;35.90;21.17;;;;;;;12.83;100.00;101541.16;5069584;28;20436;-73
2022/07/01 02:28:31;;;;;;;37.35;20.40;;;;;;;12.85;100.00;101543.72;5067906;28;20049;-73
2022/07/01 02:30:57;;;;;;;36.70;20.80;;;;;;;12.78;100.00;101536.91;5052102;28;20040;-73
2022/07/01 02:33:22;;;;;;;36.80;20.15;;;;;;;12.78;100.00;101515.97;5069794;28;20024;-73
2022/07/01 02:35:48;;;;;;;36.35;18.85;;;;;;;12.75;100.00;101496.00;5069182;28;20425;-73
2022/07/01 02:38:13;;;;;;;36.28;20.60;;;;;;;12.81;100.00;101484.50;5070489;28;20024;-73
2022/07/01 02:40:39;;;;;;;36.83;20.33;;;;;;;12.82;100.00;101501.97;5069872;28;20460;-73
2022/07/01 02:43:06;;;;;;;37.20;19.73;;;;;;;12.86;100.00;101514.06;5073233;28;20024;-73
2022/07/01 02:45:31;;;;;;;41.80;20.80;;;;;;;12.87;100.00;101505.31;5058035;28;20037;-73
2022/07/01 02:47:56;;;;;;;36.13;19.95;;;;;;;12.88;100.00;101520.09;5071433;28;20493;-73
2022/07/01 02:50:22;;;;;;;38.88;20.52;;;;;;;12.89;100.00;101530.56;5072761;28;20472;-73
2022/07/01 02:52:47;;;;;;;39.33;20.33;;;;;;;12.89;100.00;101535.78;5063690;28;20070;-73
2022/07/01 02:55:14;;;;;;;40.03;19.42;;;;;;;12.90;100.00;101528.81;5067247;28;20477;-73
2022/07/01 02:57:40;;;;;;;44.45;20.77;;;;;;;12.87;100.00;101537.56;5074030;28;20472;-73
2022/07/01 03:00:08;;;;;;;38.35;21.42;;;;;;;12.86;100.00;101535.00;5069331;28;20033;-73
2022/07/01 03:02:35;;;;;;;41.17;21.77;;;;;;;12.87;100.00;101536.72;5073966;28;20070;-73
2022/07/01 03:05:01;;;;;;;39.97;21.25;;;;;;;12.82;100.00;101534.22;5072408;28;20541;-73
2022/07/01 03:07:26;;;;;;;40.40;21.63;;;;;;;12.82;100.00;101533.34;5072876;28;20447;-72
2022/07/01 03:09:52;;;;;;;41.35;22.40;;;;;;;12.85;100.00;101534.16;5072614;28;20040;-73
2022/07/01 03:12:28;;;;;;;38.63;22.52;;;;;;;12.79;100.00;101539.50;5072863;28;20036;-73
2022/07/01 03:14:55;;;;;;;45.55;22.63;;;;;;;12.81;100.00;101540.31;5071541;28;20035;-72
2022/07/01 03:17:22;;;;;;;52.17;24.92;;;;;;;12.75;100.00;101543.09;5074311;28;20056;-73
2022/07/01 03:19:47;;;;;;;46.70;23.35;;;;;;;12.71;100.00;101537.94;5072554;28;20020;-73
2022/07/01 03:22:13;;;;;;;42.20;23.73;;;;;;;12.69;100.00;101532.75;5058679;28;20091;-73
2022/07/01 03:24:38;;;;;;;47.65;23.58;;;;;;;12.60;100.00;101522.47;5058193;28;20107;-73
2022/07/01 03:27:03;;;;;;;44.15;23.77;;;;;;;12.60;100.00;101535.56;5072036;28;20098;-73
2022/07/01 03:29:29;;;;;;;41.38;22.92;;;;;;;12.55;100.00;101530.41;5073734;28;20031;-73
2022/07/01 03:31:54;;;;;;;48.80;23.65;;;;;;;12.53;100.00;101537.44;5065833;28;20075;-72
2022/07/01 03:34:19;;;;;;;42.10;22.80;;;;;;;12.52;100.00;101542.69;5073277;28;20032;-73
2022/07/01 03:36:45;;;;;;;57.40;24.35;;;;;;;12.54;100.00;101554.00;5070996;28;20029;-73
2022/07/01 03:39:10;;;;;;;51.97;25.27;;;;;;;12.58;100.00;101563.50;5073814;28;20020;-73
2022/07/01 03:41:35;;;;;;;54.28;25.65;;;;;;;12.65;100.00;101575.53;5061598;28;20032;-73
2022/07/01 03:44:00;;;;;;;45.65;24.50;;;;;;;12.63;100.00;101569.50;5064667;28;20037;-73
2022/07/01 03:46:26;;;;;;;45.22;25.63;;;;;;;12.58;100.00;101571.34;5066909;28;20032;-73
2022/07/01 03:48:51;;;;;;;53.28;26.90;;;;;;;12.63;100.00;101583.44;5072159;28;20644;-72
2022/07/01 03:51:16;;;;;;;49.97;26.27;;;;;;;12.66;100.00;101595.59;5063266;28;20071;-73
2022/07/01 03:56:25;;;;;;;47.17;26.10;;;;;;;12.66;100.00;101598.22;5054853;28;20091;-73
2022/07/01 03:58:51;;;;;;;48.72;26.63;;;;;;;12.67;100.00;101597.31;5070796;28;20028;-73
2022/07/01 04:01:16;;;;;;;44.63;25.80;;;;;;;12.71;100.00;101603.34;5067168;28;20460;-73
2022/07/01 04:03:41;;;;;;;49.72;28.05;;;;;;;12.71;100.00;101600.72;5061513;28;20110;-73
2022/07/01 04:06:07;;;;;;;46.65;26.25;;;;;;;12.75;100.00;101605.88;5064750;28;20430;-73
2022/07/01 04:08:32;;;;;;;50.88;28.48;;;;;;;12.71;100.00;101598.13;5065374;28;20039;-73
2022/07/01 04:10:58;;;;;;;51.03;28.77;;;;;;;12.76;100.00;101606.75;5071274;28;20021;-73
2022/07/01 04:13:23;;;;;;;55.47;28.25;;;;;;;12.77;100.00;101596.22;5072992;28;20025;-73
2022/07/01 04:15:49;;;;;;;57.13;29.40;;;;;;;12.78;100.00;101589.25;5071428;28;20111;-73
2022/07/01 04:18:15;;;;;;;51.38;30.08;;;;;;;12.78;100.00;101599.72;5072443;28;20052;-73
2022/07/01 04:20:40;;;;;;;52.97;27.70;;;;;;;12.79;100.00;101602.31;5069155;28;20039;-72
2022/07/01 04:23:05;;;;;;;42.97;26.55;;;;;;;12.82;100.00;101604.00;5071670;28;20025;-73
2022/07/01 04:25:30;;;;;;;40.33;23.17;;;;;;;12.78;100.00;101605.78;5070979;28;20033;-73
2022/07/01 04:27:57;;;;;;;34.03;22.25;;;;;;;12.81;100.00;101590.03;5072103;28;20111;-73
2022/07/01 04:30:22;;;;;;;37.97;21.50;;;;;;;12.80;100.00;101587.47;5071331;28;20099;-73
2022/07/01 04:32:47;;;;;;;38.20;21.45;;;;;;;12.78;100.00;101603.19;5071843;28;20487;-73
2022/07/01 04:35:14;;;;;;;32.67;20.35;;;;;;;12.74;100.00;101601.53;5071677;28;20043;-72
2022/07/01 04:37:39;;;;;;;35.42;20.75;;;;;;;12.70;100.00;101607.72;5068738;28;20020;-73
2022/07/01 04:40:07;;;;;;;34.30;20.40;;;;;;;12.64;100.00;101608.69;5072304;28;20021;-72
2022/07/01 04:42:32;;;;;;;34.03;19.63;;;;;;;12.61;100.00;101613.13;5069407;28;20528;-73
2022/07/01 04:44:58;;;;;;;34.80;19.20;;;;;;;12.59;100.00;101604.47;5054338;28;20116;-73
2022/07/01 04:47:23;;;;;;;31.95;19.65;;;;;;;12.61;100.00;101605.28;5070742;28;20024;-72
2022/07/01 04:49:49;;;;;;;37.22;19.63;;;;;;;12.60;100.00;101614.88;5072032;28;20024;-73
2022/07/01 04:52:14;;;;;;;31.98;19.38;;;;;;;12.61;100.00;101603.53;5057448;28;20431;-72
2022/07/01 04:54:41;;;;;;;31.63;17.58;;;;;;;12.57;100.00;101607.09;5071919;28;20028;-72
2022/07/01 04:57:06;;;;;;;34.97;19.00;;;;;;;12.61;100.00;101610.50;5062020;28;20086;-73
2022/07/01 04:59:32;;;;;;;35.45;19.08;;;;;;;12.68;100.00;101609.50;5071720;28;20017;-73
2022/07/01 05:01:58;;;;;;;33.70;19.48;;;;;;;12.77;100.00;101606.69;5070619;28;20384;-73
2022/07/01 05:04:23;;;;;;;31.52;19.00;;;;;;;12.81;100.00;101615.34;5069970;28;20020;-72
2022/07/01 05:06:49;;;;;;;31.05;18.73;;;;;;;12.86;100.00;101622.22;5060442;28;20032;-73
2022/07/01 05:09:14;;;;;;;30.73;17.60;;;;;;;12.88;100.00;101628.28;5071725;28;20029;-73
2022/07/01 05:11:40;;;;;;;25.67;17.58;;;;;;;12.95;100.00;101629.03;5066186;28;20117;-73
2022/07/01 05:14:06;;;;;;;24.55;17.08;;;;;;;13.01;100.00;101623.63;5065188;28;20048;-73
2022/07/01 05:16:32;;;;;;;28.17;16.92;;;;;;;13.02;100.00;101628.00;5059525;28;20044;-73
2022/07/01 05:21:56;;;;;;;26.27;16.17;;;;;;;12.96;100.00;101629.88;5071263;28;20060;-72
2022/07/01 05:24:22;;;;;;;23.58;14.43;;;;;;;12.97;100.00;101615.88;5071819;28;20528;-72
2022/07/01 05:26:47;;;;;;;23.83;15.57;;;;;;;13.00;100.00;101623.69;5068850;28;20029;-73
2022/07/01 05:29:13;;;;;;;24.48;15.75;;;;;;;13.01;100.00;101618.41;5071854;28;20388;-72
2022/07/01 05:31:38;;;;;;;23.23;16.23;;;;;;;12.99;100.00;101616.72;5070100;28;20422;-73
2022/07/01 05:34:03;;;;;;;26.67;15.85;;;;;;;13.04;100.00;101617.47;5070896;28;20024;-72
2022/07/01 05:36:29;;;;;;;24.58;15.05;;;;;;;13.04;100.00;101617.47;5069282;28;20025;-73
2022/07/01 05:38:54;;;;;;;23.65;15.40;;;;;;;13.11;100.00;101626.91;5070401;28;20119;-72
2022/07/01 05:41:19;;;;;;;22.90;15.45;;;;;;;13.08;100.00;101620.03;5070242;28;20021;-73
2022/07/01 05:43:45;;;;;;;25.25;15.52;;;;;;;13.09;100.00;101620.88;5065082;28;20029;-72
2022/07/01 05:46:10;;;;;;;28.15;15.80;;;;;;;13.10;100.00;101620.81;5059958;28;20024;-73
2022/07/01 05:48:36;;;;;;;21.02;15.88;;;;;;;13.07;100.00;101617.41;5069499;28;20024;-72
2022/07/01 05:51:01;;;;;;;26.20;15.95;;;;;;;13.06;100.00;101624.41;5071421;28;20074;-72
2022/07/01 05:53:26;;;;;;;26.30;16.25;;;;;;;13.05;100.00;101627.94;5071513;28;20491;-72
2022/07/01 05:55:52;;;;;;;26.38;17.15;;;;;;;13.23;100.00;101633.66;5065021;28;20036;-73
2022/07/01 05:58:17;;;;;;;24.52;17.33;;;;;;;13.40;100.00;101638.56;5068817;28;20070;-73
2022/07/01 06:00:43;;;;;;;26.35;17.85;;;;;;;13.62;100.00;101634.53;5061263;28;20040;-73
2022/07/01 06:03:10;;;;;;;25.65;18.08;;;;;;;13.64;100.00;101624.91;5070116;28;20039;-72
2022/07/01 06:05:35;;;;;;;25.17;16.83;;;;;;;13.64;100.00;101622.28;5066253;28;20077;-72
2022/07/01 06:08:00;;;;;;;24.10;16.88;;;;;;;13.47;100.00;101619.16;5071010;28;20028;-73
2022/07/01 06:10:26;;;;;;;25.67;15.23;;;;;;;13.32;100.00;101631.72;5068730;28;20028;-73
2022/07/01 06:12:51;;;;;;;25.35;16.95;;;;;;;13.20;100.00;101629.34;5068984;28;20048;-73
2022/07/01 06:15:16;;;;;;;27.13;17.55;;;;;;;13.22;100.00;101635.41;5070865;28;20496;-73
2022/07/01 06:17:42;;;;;;;28.02;17.23;;;;;;;13.24;100.00;101631.06;5074270;28;20028;-73
2022/07/01 06:20:08;;;;;;;30.38;17.65;;;;;;;13.27;100.00;101635.34;5064701;28;20107;-72
2022/07/01 06:22:34;;;;;;;25.25;17.10;;;;;;;13.32;100.00;101636.13;5070168;28;20425;-72
2022/07/01 06:25:00;;;;;;;29.55;17.58;;;;;;;13.26;100.00;101631.88;5058847;28;20431;-72
2022/07/01 06:27:25;;;;;;;22.52;15.63;;;;;;;13.12;100.00;101631.28;5070382;28;20123;-72
2022/07/01 06:29:51;;;;;;;23.95;15.50;;;;;;;13.14;100.00;101634.72;5067629;28;20162;-72
2022/07/01 06:32:17;;;;;;;25.75;15.85;;;;;;;13.15;100.00;101628.59;5072135;28;20024;-72
2022/07/01 06:34:42;;;;;;;25.40;15.98;;;;;;;13.14;100.00;101624.25;5074007;28;20502;-73
2022/07/01 06:37:08;;;;;;;25.08;16.13;;;;;;;13.13;100.00;101627.75;5073867;28;20028;-72
2022/07/01 06:39:33;;;;;;;22.88;15.15;;;;;;;13.20;100.00;101623.25;5070528;28;20025;-72
2022/07/01 06:41:58;;;;;;;27.02;15.80;;;;;;;13.25;100.00;101626.69;5072712;28;20027;-77
2022/07/01 06:44:24;;;;;;;22.20;14.57;;;;;;;13.34;100.00;101626.44;5060870;28;20029;-77
2022/07/01 06:46:49;;;;;;;16.13;12.73;;;;;;;13.35;100.00;101629.03;5071239;28;20059;-76
2022/07/01 06:49:14;;;;;;;21.80;13.18;;;;;;;13.47;100.00;101621.78;5072862;28;20032;-76
2022/07/01 06:51:40;;;;;;;17.88;11.85;;;;;;;13.61;100.00;101624.13;5063177;28;20074;-76
2022/07/01 06:54:06;;;;;;;21.48;12.93;;;;;;;13.73;100.00;101621.19;5070426;28;20055;-76
2022/07/01 06:56:31;;;;;;;19.10;12.60;;;;;;;13.81;100.00;101621.88;5067120;28;20098;-76
2022/07/01 06:58:56;;;;;;;18.02;13.10;;;;;;;13.88;100.00;101622.59;5070087;28;20547;-76
2022/07/01 07:01:22;;;;;;;20.08;12.07;;;;;;;14.05;100.00;101621.25;5072949;28;20036;-76
2022/07/01 07:03:48;;;;;;;18.13;12.02;;;;;;;14.11;100.00;101614.13;5072681;28;20032;-76
2022/07/01 07:06:13;;;;;;;20.42;10.88;;;;;;;14.11;100.00;101627.25;5073011;28;20090;-75
2022/07/01 07:08:39;;;;;;;15.48;9.90;;;;;;;14.04;100.00;101622.16;5072351;28;20090;-76
2022/07/01 07:11:04;;;;;;;12.68;8.90;;;;;;;14.09;100.00;101639.53;5060864;28;20028;-76
2022/07/01 07:13:30;;;;;;;18.15;8.27;;;;;;;14.04;100.00;101653.63;5073822;28;20020;-75
2022/07/01 07:15:56;;;;;;;14.18;8.85;;;;;;;14.09;100.00;101650.88;5073648;28;20532;-77
2022/07/01 07:18:21;;;;;;;11.45;7.78;;;;;;;14.02;100.00;101660.66;5073095;28;20520;-75
2022/07/01 07:20:49;;;;;;;11.05;7.00;;;;;;;13.89;100.00;101661.84;5067072;28;20051;-76
2022/07/01 07:23:15;;;;;;;19.00;6.40;;;;;;;13.91;100.00;101659.22;5071223;28;20039;-76
2022/07/01 07:25:40;;;;;;;10.57;6.10;;;;;;;13.95;100.00;101652.97;5073798;28;20450;-76
2022/07/01 07:28:05;;;;;;;10.23;5.93;;;;;;;14.03;100.00;101651.91;5072047;28;20563;-76
2022/07/01 07:30:31;;;;;;;9.15;5.55;;;;;;;14.13;100.00;101649.91;5068779;28;20524;-75
2022/07/01 07:32:57;;;;;;;9.00;4.40;;;;;;;14.12;100.00;101652.56;5072041;28;20374;-77
2022/07/01 07:35:22;;;;;;;9.13;4.53;;;;;;;14.01;100.00;101650.22;5072726;28;20036;-76
2022/07/01 07:37:47;;;;;;;8.02;4.05;;;;;;;13.96;100.00;101652.06;5073333;28;20056;-76
2022/07/01 07:40:17;;;;;;;7.80;4.63;;;;;;;13.95;100.00;101647.75;5072931;28;20036;-75
2022/07/01 07:42:44;;;;;;;8.52;4.45;;;;;;;13.94;100.00;101654.75;5073200;28;20412;-76
2022/07/01 07:45:11;;;;;;;12.25;5.05;;;;;;;13.97;100.00;101665.16;5059464;28;20539;-75
2022/07/01 07:47:37;;;;;;;10.30;3.90;;;;;;;14.06;100.00;101664.09;5066787;28;20396;-76
2022/07/01 07:50:03;;;;;;;6.93;3.40;;;;;;;14.22;100.00;101659.28;5072200;28;20025;-76
2022/07/01 07:52:29;;;;;;;5.90;3.10;;;;;;;14.36;100.00;101667.69;5073474;28;20024;-75
2022/07/01 07:54:55;;;;;;;6.50;3.72;;;;;;;14.48;100.00;101671.72;5065991;28;20032;-75
2022/07/01 07:57:20;;;;;;;7.18;3.10;;;;;;;14.59;100.00;101680.22;5070536;28;20035;-75
2022/07/01 07:59:46;;;;;;;7.50;2.58;;;;;;;14.65;100.00;101671.28;5071032;28;20112;-75
2022/07/01 08:02:11;;;;;;;3.85;2.20;;;;;;;14.73;100.00;101671.97;5071797;28;20024;-75
2022/07/01 08:04:37;;;;;;;4.18;2.08;;;;;;;14.71;100.00;101671.13;5072881;28;20100;-76
2022/07/01 08:07:02;;;;;;;5.05;2.25;;;;;;;14.69;100.00;101668.56;5070555;28;20348;-75
2022/07/01 08:09:28;;;;;;;5.82;2.35;;;;;;;14.75;100.00;101672.78;5067487;28;20564;-75
2022/07/01 08:11:53;;;;;;;5.15;1.95;;;;;;;14.86;100.00;101680.38;5069471;28;20107;-75
2022/07/01 08:14:18;;;;;;;6.25;2.33;;;;;;;14.97;100.00;101680.91;5073015;28;20468;-76
2022/07/01 08:16:43;;;;;;;5.55;2.33;;;;;;;15.09;100.00;101684.97;5071697;28;20115;-75
2022/07/01 08:19:09;;;;;;;6.20;2.00;;;;;;;15.17;100.00;101678.59;5067778;28;20040;-75
2022/07/01 08:21:35;;;;;;;2.40;1.58;;;;;;;15.16;100.00;101691.75;5065945;28;20052;-76
2022/07/01 08:24:00;;;;;;;4.70;1.60;;;;;;;15.17;94.83;101693.47;5071818;28;20028;-75
2022/07/01 08:26:25;;;;;;;3.92;2.08;;;;;;;15.16;95.40;101697.84;5074026;28;20036;-76
2022/07/01 08:28:51;;;;;;;4.43;1.40;;;;;;;15.18;96.95;101700.47;5072294;28;20024;-76
2022/07/01 08:31:16;;;;;;;2.00;1.58;;;;;;;15.29;96.80;101706.25;5086301;28;20457;-76
2022/07/01 08:33:41;;;;;;;2.88;1.70;;;;;;;15.39;90.74;101705.06;5078573;28;20535;-76
2022/07/01 08:36:08;;;;;;;2.83;1.80;;;;;;;15.45;97.82;101707.50;5075032;28;20075;-76
2022/07/01 08:38:34;;;;;;;5.18;1.70;;;;;;;15.49;92.61;101697.78;5071006;28;20419;-76
2022/07/01 08:41:01;;;;;;;4.80;1.95;;;;;;;15.56;98.94;101707.19;5057136;28;20029;-75
2022/07/01 08:43:27;;;;;;;5.68;2.17;;;;;;;15.74;96.00;101715.47;5068548;28;20041;-76
2022/07/01 08:45:52;;;;;;;4.78;2.10;;;;;;;15.83;92.78;101715.19;5056935;28;21126;-76
2022/07/01 08:48:18;;;;;;;3.85;1.80;;;;;;;15.80;96.05;101716.13;5066465;28;20024;-76
2022/07/01 08:50:43;;;;;;;4.28;1.80;;;;;;;15.85;90.86;101724.72;5071327;28;20043;-77
2022/07/01 08:53:10;;;;;;;4.65;2.00;;;;;;;15.87;95.01;101722.91;5072309;28;20028;-77
2022/07/01 08:58:21;;;;;;;5.05;2.10;;;;;;;16.20;84.29;101735.03;5067225;28;20086;-76
2022/07/01 09:00:46;;;;;;;5.38;1.80;;;;;;;16.38;86.82;101744.94;5062601;28;20545;-77
2022/07/01 09:03:11;;;;;;;4.20;1.80;;;;;;;16.59;93.22;101733.69;5072155;28;20025;-77
2022/07/01 09:05:37;;;;;;;5.22;2.42;;;;;;;16.84;92.63;101740.78;5070977;28;20150;-77
2022/07/01 09:08:05;;;;;;;6.55;2.10;;;;;;;17.10;83.80;101737.19;5070799;28;20032;-77
2022/07/01 09:10:36;;;;;;;6.13;1.98;;;;;;;17.35;85.35;101739.78;5071318;28;20024;-76
2022/07/01 09:13:12;;;;;;;3.70;1.83;;;;;;;17.52;87.57;101733.88;5071215;28;20024;-78
2022/07/01 09:15:39;;;;;;;5.57;2.15;;;;;;;17.65;85.36;101728.97;5071836;28;20131;-77
2022/07/01 09:18:13;;;;;;;3.65;1.92;;;;;;;17.92;86.02;101730.59;5069169;28;20048;-76
2022/07/01 09:20:42;;;;;;;;;;;;;;;17.99;93.28;101732.06;5060232;28;20417;-77
2022/07/01 09:23:12;;;;;;;1.95;1.50;;;;;;;17.73;80.22;101727.78;5061647;28;20027;-77
2022/07/01 09:25:43;;;;;;;3.22;1.48;;;;;;;17.61;75.34;101727.41;5070780;28;20099;-77
2022/07/01 09:28:17;;;;;;;3.60;1.58;;;;;;;17.70;79.98;101737.59;5063401;28;20029;-77
2022/07/01 09:30:45;;;;;;;4.78;1.48;;;;;;;17.61;77.84;101744.06;5064752;28;20521;-77
2022/07/01 09:33:13;;;;;;;4.32;1.40;;;;;;;17.72;77.08;101741.00;5066266;28;20106;-77
2022/07/01 09:35:39;;;;;;;5.65;1.77;;;;;;;17.89;78.88;101741.25;5065584;28;20085;-77
2022/07/01 09:38:06;;;;;;;5.70;1.80;;;;;;;17.90;75.97;101742.09;5067485;28;20025;-77
2022/07/01 09:40:57;;;;;;;3.55;1.80;;;;;;;17.85;77.63;101731.72;5070873;28;20383;-77
2022/07/01 09:43:34;;;;;;;3.00;1.52;;;;;;;17.97;78.54;101748.84;5069362;28;20473;-77
2022/07/01 09:46:02;;;;;;;4.63;1.83;;;;;;;17.96;77.80;101741.88;5071628;28;20032;-77
2022/07/01 09:48:43;;;;;;;4.90;1.88;;;;;;;17.94;78.42;101741.91;5070695;28;20377;-77
2022/07/01 09:51:10;;;;;;;2.47;1.50;;;;;;;18.08;75.69;101748.41;5073502;28;20063;-77
2022/07/01 09:53:36;;;;;;;4.28;1.58;;;;;;;18.12;71.69;101745.59;5067942;28;20488;-77
2022/07/01 09:56:01;;;;;;;3.22;1.48;;;;;;;18.03;74.10;101743.34;5075303;28;20035;-78
2022/07/01 09:58:27;;;;;;;3.70;1.85;;;;;;;18.07;77.09;101747.56;5065242;28;20115;-77
2022/07/01 10:00:53;;;;;;;5.03;1.70;;;;;;;18.10;75.71;101762.41;5074236;28;20033;-77
2022/07/01 10:03:20;;;;;;;7.63;1.52;;;;;;;17.93;75.44;101752.53;5075486;28;20042;-77
2022/07/01 10:05:53;;;;;;;3.10;1.33;;;;;;;17.97;75.67;101756.78;5070056;28;20415;-77
2022/07/01 10:08:46;;;;;;;5.13;1.85;;;;;;;17.97;77.35;101756.78;5063747;28;20526;-77
2022/07/01 10:11:42;;;;;;;6.18;2.08;;;;;;;17.60;79.63;101765.22;5076025;28;20108;-77
2022/07/01 10:14:11;;;;;;;4.05;1.90;;;;;;;17.36;83.91;101767.84;5075137;28;20017;-77
2022/07/01 10:16:38;;;;;;;4.55;2.10;;;;;;;17.60;80.19;101774.00;5073956;28;20032;-77
2022/07/01 10:19:26;;;;;;;2.40;1.50;;;;;;;17.49;78.90;101771.78;5074895;28;20055;-72
2022/07/01 10:21:56;;;;;;;5.45;1.70;;;;;;;17.68;78.75;101776.34;5073115;28;20016;-72
2022/07/01 10:24:22;;;;;;;6.18;1.83;;;;;;;17.97;76.54;101765.53;5070580;28;20058;-72
2022/07/01 10:26:48;;;;;;;5.75;1.50;;;;;;;17.93;77.29;101787.69;5074438;28;20035;-72
2022/07/01 10:29:38;;;;;;;5.93;1.27;;;;;;;17.95;76.14;101785.88;5072918;28;20028;-72
2022/07/01 10:32:29;;;;;;;5.05;1.73;;;;;;;18.47;73.99;101799.59;5065052;28;20040;-72
2022/07/01 10:35:05;;;;;;;4.03;1.40;;;;;;;18.80;73.43;101790.34;5066624;28;20050;-72
2022/07/01 10:37:31;;;;;;;4.22;1.33;;;;;;;19.33;70.09;101795.91;5074363;28;20099;-72
2022/07/01 10:40:00;;;;;;;4.03;1.10;;;;;;;19.35;65.95;101793.19;5073579;28;20081;-72
2022/07/01 10:42:33;;;;;;;4.55;1.38;;;;;;;19.37;66.32;101789.56;5072023;28;20028;-72
2022/07/01 10:45:05;;;;;;;3.72;1.30;;;;;;;19.37;70.28;101789.56;5057940;28;20028;-73
2022/07/01 10:47:31;;;;;;;2.47;1.23;;;;;;;19.55;69.19;101773.78;5062049;28;20044;-78
2022/07/01 10:50:15;;;;;;;4.93;1.58;;;;;;;19.74;69.87;101777.31;5071710;28;20060;-77
2022/07/01 10:52:59;;;;;;;6.65;1.27;;;;;;;19.88;69.13;101769.59;5073427;28;20029;-78
2022/07/01 10:55:39;;;;;;;3.85;1.27;;;;;;;19.98;63.95;101775.31;5072471;28;20125;-78
2022/07/01 10:58:05;;;;;;;10.52;1.35;;;;;;;19.86;63.07;101774.09;5064385;28;20082;-78
2022/07/01 11:00:32;;;;;;;2.63;1.00;;;;;;;20.10;60.38;101771.19;5071564;28;20032;-78
2022/07/01 11:03:10;;;;;;;2.83;1.08;;;;;;;20.62;63.80;101765.13;5069291;28;20540;-77
2022/07/01 11:05:36;;;;;;;2.65;1.20;;;;;;;20.87;60.81;101767.38;5070842;28;20037;-77
2022/07/01 11:08:04;;;;;;;3.78;1.05;;;;;;;20.73;57.67;101760.13;5072206;28;20407;-77
2022/07/01 11:10:29;;;;;;;2.38;0.93;;;;;;;20.34;56.85;101763.84;5071724;28;20028;-77
2022/07/01 11:12:55;;;;;;;3.65;1.25;;;;;;;20.42;67.25;101763.44;5067855;28;20035;-77
2022/07/01 11:15:22;;;;;;;5.30;1.27;;;;;;;20.25;61.01;101762.50;5072649;28;20025;-77